Time;durP1;ratioP1;P1;durP2;ratioP2;P2;SDS_P1;SDS_P2;PMS_P1;PMS_P2;Temp;Humidity;BMP_temperature;BMP_pressure;BME280_temperature;BME280_humidity;BME280_pressure;Samples;Min_cycle;Max_cycle;Signal;HPM_P1;HPM_P2
2022/04/03 00:00:40;;;;;;;10.43;3.70;;;-2.70;99.90;;;;;;5000701;28;20078;-86
2022/04/03 00:03:08;;;;;;;10.10;3.40;;;-2.70;99.90;;;;;;5019155;28;20069;-86
2022/04/03 00:05:38;;;;;;;8.77;3.33;;;-2.70;99.90;;;;;;5018704;28;20034;-86
2022/04/03 00:08:04;;;;;;;10.13;3.20;;;-2.80;99.90;;;;;;5018050;28;20087;-86
2022/04/03 00:10:30;;;;;;;8.67;2.93;;;-2.70;99.90;;;;;;5001001;28;20501;-86
2022/04/03 00:12:55;;;;;;;9.10;3.03;;;-2.70;99.90;;;;;;5019369;28;20096;-86
2022/04/03 00:15:21;;;;;;;10.77;3.07;;;-2.70;99.90;;;;;;5000569;28;20141;-86
2022/04/03 00:17:47;;;;;;;9.57;2.90;;;-2.70;99.90;;;;;;5018978;28;20053;-86
2022/04/03 00:20:13;;;;;;;9.83;2.67;;;-2.70;99.90;;;;;;5017844;28;20042;-86
2022/04/03 00:22:39;;;;;;;8.97;2.77;;;-2.70;99.90;;;;;;5019053;28;20048;-86
2022/04/03 00:25:05;;;;;;;7.27;2.57;;;-2.70;99.90;;;;;;5018674;28;20120;-86
2022/04/03 00:27:31;;;;;;;9.50;2.90;;;-2.70;99.90;;;;;;5000281;28;20061;-86
2022/04/03 00:29:57;;;;;;;8.90;2.63;;;-2.70;99.90;;;;;;5001426;28;20041;-86
2022/04/03 00:32:23;;;;;;;9.47;2.67;;;-2.70;99.90;;;;;;5015188;28;20041;-86
2022/04/03 00:34:49;;;;;;;7.70;2.73;;;-2.70;99.90;;;;;;5015187;28;20046;-86
2022/04/03 00:37:15;;;;;;;8.93;2.53;;;-2.70;99.90;;;;;;4998102;28;20379;-86
2022/04/03 00:39:40;;;;;;;9.37;2.80;;;-2.70;99.90;;;;;;4998075;28;20046;-86
2022/04/03 00:42:08;;;;;;;7.67;2.50;;;-2.70;99.90;;;;;;4997260;28;20053;-86
2022/04/03 00:44:35;;;;;;;9.10;2.80;;;-2.70;99.90;;;;;;5015200;28;20175;-85
2022/04/03 00:47:02;;;;;;;8.37;3.20;;;-2.60;99.90;;;;;;4998253;28;20042;-86
2022/04/03 00:49:28;;;;;;;9.33;3.30;;;-2.60;99.90;;;;;;4996776;28;20125;-86
2022/04/03 00:51:54;;;;;;;7.93;2.87;;;-2.50;99.90;;;;;;4997609;28;20045;-86
2022/04/03 00:54:19;;;;;;;9.13;3.27;;;-2.50;99.90;;;;;;5014654;28;20072;-86
2022/04/03 00:56:45;;;;;;;7.90;2.70;;;-2.40;99.90;;;;;;4996841;28;20042;-86
2022/04/03 00:59:14;;;;;;;8.73;2.80;;;-2.00;99.90;;;;;;5014981;28;20108;-86
2022/04/03 01:01:42;;;;;;;9.23;2.90;;;-2.30;99.90;;;;;;5015419;28;20061;-86
2022/04/03 01:04:08;;;;;;;8.33;2.83;;;-2.20;99.90;;;;;;4997018;28;20053;-85
2022/04/03 01:06:34;;;;;;;10.87;3.27;;;-2.20;99.90;;;;;;4997396;28;20080;-86
2022/04/03 01:08:59;;;;;;;8.57;2.97;;;-2.20;99.90;;;;;;5015114;28;20056;-85
2022/04/03 01:11:25;;;;;;;10.67;3.07;;;-2.30;99.90;;;;;;4996137;28;20045;-85
2022/04/03 01:13:51;;;;;;;9.00;3.13;;;-2.40;99.90;;;;;;5015077;28;20053;-85
2022/04/03 01:16:18;;;;;;;8.43;2.80;;;-2.50;99.90;;;;;;5014601;28;20066;-85
2022/04/03 01:18:43;;;;;;;8.20;2.50;;;-2.60;99.90;;;;;;5014248;28;20406;-86
2022/04/03 01:21:10;;;;;;;9.67;3.20;;;-2.70;99.90;;;;;;5014767;28;20049;-85
2022/04/03 01:23:36;;;;;;;9.13;3.10;;;-2.80;99.90;;;;;;5014190;28;20088;-85
2022/04/03 01:26:02;;;;;;;9.70;3.50;;;-2.80;99.90;;;;;;5015480;28;20057;-85
2022/04/03 01:28:27;;;;;;;9.13;3.10;;;-2.90;99.90;;;;;;5014790;28;20049;-85
2022/04/03 01:30:53;;;;;;;9.33;3.20;;;-2.90;99.90;;;;;;5014119;28;20046;-85
2022/04/03 01:33:19;;;;;;;9.17;3.40;;;-3.00;99.90;;;;;;5014279;28;20078;-85
2022/04/03 01:35:45;;;;;;;9.17;2.90;;;-3.00;99.90;;;;;;5014604;28;20046;-85
2022/04/03 01:38:11;;;;;;;10.90;3.47;;;-3.00;99.90;;;;;;5013330;28;20517;-86
2022/04/03 01:40:37;;;;;;;8.30;3.23;;;-3.00;99.90;;;;;;4997169;28;20168;-86
2022/04/03 01:43:07;;;;;;;8.97;3.40;;;-3.00;99.90;;;;;;5013335;28;20053;-85
2022/04/03 01:45:34;;;;;;;9.50;3.30;;;-3.10;99.90;;;;;;4997318;28;20060;-85
2022/04/03 01:48:00;;;;;;;10.87;3.37;;;-3.10;99.90;;;;;;4996777;28;20088;-85
2022/04/03 01:50:28;;;;;;;9.00;3.30;;;-3.10;99.90;;;;;;4996111;28;20081;-85
2022/04/03 01:52:54;;;;;;;8.57;3.20;;;-3.20;99.90;;;;;;5013569;28;20045;-85
2022/04/03 01:55:20;;;;;;;8.17;2.87;;;-3.20;99.90;;;;;;5013927;28;20053;-85
2022/04/03 01:57:46;;;;;;;9.00;3.13;;;-3.20;99.90;;;;;;4996547;28;20088;-85
2022/04/03 02:00:12;;;;;;;9.37;2.93;;;-3.20;99.90;;;;;;4995684;28;20525;-85
2022/04/03 02:02:39;;;;;;;8.83;3.00;;;-3.20;99.90;;;;;;5012932;28;20050;-85
2022/04/03 02:05:05;;;;;;;9.13;3.10;;;-3.30;99.90;;;;;;5013604;28;20050;-85
2022/04/03 02:07:33;;;;;;;10.03;3.20;;;-3.30;99.90;;;;;;5013082;28;20046;-85
2022/04/03 02:09:59;;;;;;;10.03;3.07;;;-3.40;99.90;;;;;;5014075;28;20045;-85
2022/04/03 02:12:24;;;;;;;8.57;2.90;;;-3.40;99.90;;;;;;4995810;28;20046;-85
2022/04/03 02:14:50;;;;;;;9.87;3.13;;;-3.40;99.90;;;;;;4995550;28;20061;-85
2022/04/03 02:17:16;;;;;;;10.60;3.03;;;-3.40;99.90;;;;;;4995891;28;20042;-85
2022/04/03 02:19:41;;;;;;;10.87;3.10;;;-3.40;99.90;;;;;;4996320;28;20046;-85
2022/04/03 02:22:08;;;;;;;8.27;2.97;;;-3.40;99.90;;;;;;4995644;28;20470;-85
2022/04/03 02:24:33;;;;;;;9.50;3.07;;;-3.40;99.90;;;;;;4996001;28;20068;-85
2022/04/03 02:26:59;;;;;;;9.43;3.53;;;-3.40;99.90;;;;;;5012977;28;20045;-85
2022/04/03 02:29:25;;;;;;;10.57;3.50;;;-3.40;99.90;;;;;;5013190;28;20461;-85
2022/04/03 02:31:50;;;;;;;10.40;3.43;;;-3.40;99.90;;;;;;4996132;28;20100;-85
2022/04/03 02:34:17;;;;;;;11.07;3.30;;;-3.40;99.90;;;;;;4994567;28;20046;-85
2022/04/03 02:36:43;;;;;;;10.50;3.23;;;-3.40;99.90;;;;;;4996111;28;20079;-85
2022/04/03 02:39:09;;;;;;;8.80;3.50;;;-3.40;99.90;;;;;;4995661;28;20049;-85
2022/04/03 02:41:35;;;;;;;9.30;3.50;;;-3.40;99.90;;;;;;5012072;28;20054;-85
2022/04/03 02:44:03;;;;;;;8.70;3.60;;;-3.40;99.90;;;;;;4995694;28;20049;-85
2022/04/03 02:46:29;;;;;;;9.43;3.47;;;-3.40;99.90;;;;;;4995510;28;20124;-84
2022/04/03 02:48:55;;;;;;;9.83;3.40;;;-3.50;99.90;;;;;;4994828;28;20573;-85
2022/04/03 02:51:21;;;;;;;9.80;3.53;;;-3.40;99.90;;;;;;4995742;28;20046;-84
2022/04/03 02:53:46;;;;;;;10.57;3.63;;;-3.40;99.90;;;;;;5013447;28;20540;-84
2022/04/03 02:56:12;;;;;;;9.43;3.40;;;-3.30;99.90;;;;;;5012015;28;20125;-84
2022/04/03 02:58:37;;;;;;;9.67;3.70;;;-3.00;99.90;;;;;;5013291;28;20053;-85
2022/04/03 03:01:03;;;;;;;9.60;3.60;;;-3.20;99.90;;;;;;4995542;28;20153;-84
2022/04/03 03:03:29;;;;;;;9.67;4.00;;;-3.20;99.90;;;;;;4994916;28;20060;-85
2022/04/03 03:05:54;;;;;;;9.50;3.60;;;-3.10;99.90;;;;;;4995789;28;20092;-84
2022/04/03 03:08:20;;;;;;;10.27;3.60;;;-3.20;99.90;;;;;;5012746;28;20477;-84
2022/04/03 03:10:46;;;;;;;9.77;3.40;;;-3.20;99.90;;;;;;4994706;28;20061;-84
2022/04/03 03:13:12;;;;;;;9.50;3.77;;;-3.10;99.90;;;;;;4995009;28;20053;-84
2022/04/03 03:15:38;;;;;;;10.57;3.57;;;-3.10;99.90;;;;;;4995266;28;20038;-84
2022/04/03 03:18:04;;;;;;;10.67;3.53;;;-4.30;99.90;;;;;;4994466;28;20046;-84
2022/04/03 03:20:29;;;;;;;9.73;3.93;;;-2.90;99.90;;;;;;4994980;28;20058;-84
2022/04/03 03:22:55;;;;;;;9.93;3.53;;;-2.80;99.90;;;;;;5012750;28;20081;-84
2022/04/03 03:25:20;;;;;;;11.07;3.80;;;-2.80;99.90;;;;;;4994171;28;20038;-84
2022/04/03 03:27:46;;;;;;;9.60;3.97;;;-2.70;99.90;;;;;;4995506;28;20049;-84
2022/04/03 03:30:12;;;;;;;10.37;3.57;;;-2.60;99.90;;;;;;5012132;28;20081;-84
2022/04/03 03:32:37;;;;;;;9.70;3.60;;;-2.50;99.90;;;;;;5012966;28;20077;-84
2022/04/03 03:35:04;;;;;;;10.10;3.73;;;-2.50;99.90;;;;;;4995120;28;20038;-85
2022/04/03 03:37:30;;;;;;;11.47;3.50;;;-2.30;99.90;;;;;;4993983;28;20050;-84
2022/04/03 03:39:56;;;;;;;11.03;3.63;;;-2.20;99.90;;;;;;4995165;28;20121;-84
2022/04/03 03:42:22;;;;;;;10.87;3.30;;;-2.00;99.90;;;;;;4994780;28;20069;-85
2022/04/03 03:44:51;;;;;;;10.67;3.70;;;-2.00;99.90;;;;;;5011978;28;20053;-84
2022/04/03 03:47:16;;;;;;;10.27;3.50;;;-2.00;99.90;;;;;;4994591;28;20489;-84
2022/04/03 03:49:42;;;;;;;9.57;3.50;;;-1.90;99.90;;;;;;4995067;28;20052;-84
2022/04/03 03:52:07;;;;;;;8.93;3.27;;;-1.80;99.90;;;;;;4994849;28;20045;-85
2022/04/03 03:54:33;;;;;;;11.17;3.50;;;-1.80;99.90;;;;;;5012227;28;20498;-85
2022/04/03 03:56:59;;;;;;;11.10;3.40;;;-1.70;99.90;;;;;;5012428;28;20053;-85
2022/04/03 03:59:25;;;;;;;7.93;3.10;;;-1.60;99.90;;;;;;5011891;28;20125;-84
2022/04/03 04:01:50;;;;;;;8.33;3.03;;;-1.60;99.90;;;;;;5012434;28;20030;-84
2022/04/03 04:04:16;;;;;;;10.30;3.43;;;-1.50;99.90;;;;;;5001004;23;20565;-84
2022/04/03 04:06:42;;;;;;;8.27;2.97;;;-1.10;99.90;;;;;;4995946;28;20120;-84
2022/04/03 04:09:07;;;;;;;9.13;3.10;;;-1.30;99.90;;;;;;4998889;28;20099;-85
2022/04/03 04:11:34;;;;;;;9.17;3.30;;;-1.30;99.90;;;;;;4999012;28;20045;-85
2022/04/03 04:13:59;;;;;;;9.17;3.20;;;-1.20;99.90;;;;;;5015428;28;20049;-84
2022/04/03 04:16:25;;;;;;;7.53;3.00;;;-1.20;99.90;;;;;;4998022;28;20048;-84
2022/04/03 04:18:51;;;;;;;9.67;3.20;;;-1.20;99.90;;;;;;5016254;28;20050;-84
2022/04/03 04:21:17;;;;;;;9.70;3.50;;;-1.10;99.90;;;;;;5015205;28;20042;-84
2022/04/03 04:23:43;;;;;;;8.30;3.30;;;-1.10;99.90;;;;;;4998531;28;20072;-85
2022/04/03 04:26:08;;;;;;;9.67;3.43;;;-1.10;99.90;;;;;;4998467;28;20096;-85
2022/04/03 04:28:35;;;;;;;10.23;3.30;;;-1.00;99.90;;;;;;4997366;28;20074;-85
2022/04/03 04:31:01;;;;;;;9.53;3.60;;;-1.00;99.90;;;;;;4998021;28;20142;-85
2022/04/03 04:33:26;;;;;;;8.90;3.77;;;-0.90;99.90;;;;;;4996955;28;20132;-85
2022/04/03 04:35:52;;;;;;;9.60;3.17;;;-0.90;99.90;;;;;;4998360;28;20048;-85
2022/04/03 04:38:18;;;;;;;9.63;3.43;;;-0.90;99.90;;;;;;4998051;28;20549;-85
2022/04/03 04:40:44;;;;;;;10.43;3.80;;;-0.90;99.90;;;;;;4997113;28;20064;-85
2022/04/03 04:45:35;;;;;;;9.00;3.57;;;-0.90;99.90;;;;;;5043138;23;20086;-85
2022/04/03 04:48:01;;;;;;;8.80;3.50;;;-0.90;99.90;;;;;;4997051;28;20056;-85
2022/04/03 04:50:28;;;;;;;10.57;3.67;;;-0.70;99.90;;;;;;4997733;28;20096;-85
2022/04/03 04:52:54;;;;;;;10.33;3.50;;;-0.90;99.90;;;;;;4997811;28;20057;-85
2022/04/03 04:55:20;;;;;;;9.13;3.40;;;-0.90;99.90;;;;;;5014401;28;20050;-85
2022/04/03 04:57:51;;;;;;;10.57;4.13;;;-0.80;99.90;;;;;;4997672;28;20042;-85
2022/04/03 05:00:17;;;;;;;10.00;3.63;;;-0.80;99.90;;;;;;5014982;28;20054;-85
2022/04/03 05:02:46;;;;;;;9.83;3.60;;;-0.80;99.90;;;;;;4997219;28;20049;-85
2022/04/03 05:05:13;;;;;;;9.07;3.60;;;-0.80;99.90;;;;;;4997634;28;20445;-85
2022/04/03 05:07:39;;;;;;;9.33;3.90;;;-0.70;99.90;;;;;;4997711;28;20057;-86
2022/04/03 05:10:06;;;;;;;11.33;4.73;;;-0.70;99.90;;;;;;4997333;28;20501;-86
2022/04/03 05:12:34;;;;;;;10.67;4.13;;;-0.60;99.90;;;;;;4997138;28;20047;-86
2022/04/03 05:14:59;;;;;;;10.17;4.30;;;-0.50;99.90;;;;;;5015294;28;20046;-86
2022/04/03 05:17:26;;;;;;;10.40;3.93;;;-0.50;99.90;;;;;;5014079;28;20045;-86
2022/04/03 05:19:53;;;;;;;11.87;4.10;;;-0.30;99.90;;;;;;5015103;28;20046;-85
2022/04/03 05:22:20;;;;;;;10.23;4.60;;;-0.30;99.90;;;;;;4996871;28;20049;-86
2022/04/03 05:24:47;;;;;;;11.10;4.50;;;-0.20;99.90;;;;;;5014481;28;20140;-85
2022/04/03 05:27:12;;;;;;;9.73;4.30;;;-0.20;99.90;;;;;;4997009;28;20387;-86
2022/04/03 05:29:38;;;;;;;11.10;4.17;;;-0.10;99.90;;;;;;5014287;28;20045;-85
2022/04/03 05:32:05;;;;;;;9.30;3.80;;;0.00;99.90;;;;;;4997101;28;20046;-85
2022/04/03 05:34:30;;;;;;;10.70;3.40;;;0.00;99.90;;;;;;4997059;28;20038;-86
2022/04/03 05:36:56;;;;;;;12.10;4.00;;;0.30;99.90;;;;;;4996106;28;20513;-85
2022/04/03 05:39:21;;;;;;;13.07;5.53;;;0.20;99.90;;;;;;5014394;28;20404;-86
2022/04/03 05:41:49;;;;;;;10.03;4.60;;;0.40;99.90;;;;;;5014617;28;20042;-85
2022/04/03 05:44:14;;;;;;;11.30;4.73;;;0.30;99.90;;;;;;4995177;28;20062;-85
2022/04/03 05:46:40;;;;;;;12.20;4.40;;;0.40;99.90;;;;;;5013593;28;20076;-86
2022/04/03 05:49:05;;;;;;;11.83;4.40;;;1.70;99.90;;;;;;5013319;28;20042;-85
2022/04/03 05:51:31;;;;;;;11.37;4.17;;;0.70;99.90;;;;;;4994455;28;20038;-85
2022/04/03 05:53:57;;;;;;;12.33;5.03;;;0.40;99.90;;;;;;5013344;28;20050;-86
2022/04/03 05:56:27;;;;;;;11.67;4.90;;;0.40;99.90;;;;;;5012730;28;20049;-86
2022/04/03 05:58:53;;;;;;;11.43;5.13;;;0.60;99.90;;;;;;4995148;28;20050;-86
2022/04/03 06:01:18;;;;;;;12.13;4.70;;;0.40;99.90;;;;;;5013114;28;20045;-86
2022/04/03 06:03:44;;;;;;;10.23;5.10;;;0.50;99.90;;;;;;5013492;28;20050;-86
2022/04/03 06:06:10;;;;;;;11.07;4.73;;;0.50;99.90;;;;;;4994613;28;20038;-86
2022/04/03 06:08:35;;;;;;;11.47;4.80;;;0.50;99.90;;;;;;4995684;28;20050;-86
2022/04/03 06:11:01;;;;;;;11.20;4.40;;;0.50;99.90;;;;;;4980830;23;1226930;-91
2022/04/03 06:13:26;;;;;;;11.67;3.83;;;0.60;99.90;;;;;;5032686;28;20077;-92
2022/04/03 06:15:52;;;;;;;9.67;3.50;;;0.50;99.90;;;;;;5037291;28;20049;-91
2022/04/03 06:18:18;;;;;;;8.40;3.47;;;0.70;99.90;;;;;;5034339;28;20045;-89
2022/04/03 06:20:44;;;;;;;8.33;3.30;;;0.50;99.90;;;;;;5033248;28;20041;-95
2022/04/03 06:23:12;;;;;;;40.03;22.43;;;0.50;99.90;;;;;;5034248;28;20102;-91
2022/04/03 06:25:42;;;;;;;37.27;21.13;;;0.40;99.90;;;;;;5024148;23;20056;-91
2022/04/03 06:28:07;;;;;;;94.63;53.53;;;0.30;99.90;;;;;;4995729;28;20042;-92
2022/04/03 06:31:01;;;;;;;36.63;20.80;;;0.30;99.90;;;;;;4995558;28;20115;-91
2022/04/03 06:33:51;;;;;;;9.30;3.90;;;-0.20;99.90;;;;;;5013535;28;20038;-92
2022/04/03 06:36:32;;;;;;;15.60;7.57;;;2.80;99.90;;;;;;4999136;28;20057;-91
2022/04/03 06:38:58;;;;;;;11.13;3.80;;;0.70;99.90;;;;;;5015470;28;20133;-90
2022/04/03 06:41:33;;;;;;;11.13;4.50;;;0.20;99.90;;;;;;5014460;28;20077;-91
2022/04/03 06:44:00;;;;;;;16.30;6.40;;;0.20;99.90;;;;;;4996785;28;20081;-90
2022/04/03 06:46:26;;;;;;;13.13;6.50;;;1.40;99.90;;;;;;4995902;28;20049;-94
2022/04/03 06:48:52;;;;;;;17.33;11.43;;;0.30;99.90;;;;;;5004508;28;20042;-87
2022/04/03 06:51:18;;;;;;;24.77;17.50;;;0.70;99.90;;;;;;5007178;28;20057;-89
2022/04/03 06:53:52;;;;;;;11.07;5.20;;;0.50;99.90;;;;;;5013564;28;20045;-89
2022/04/03 06:56:19;;;;;;;14.80;9.60;;;0.40;99.90;;;;;;4995447;28;20053;-90
2022/04/03 06:59:00;;;;;;;16.67;10.87;;;0.60;99.90;;;;;;5013976;28;20115;-89
2022/04/03 07:01:35;;;;;;;12.40;6.90;;;0.60;99.90;;;;;;5007492;28;20077;-89
2022/04/03 07:04:01;;;;;;;15.77;8.13;;;0.80;99.90;;;;;;5024585;28;20045;-90
2022/04/03 07:06:42;;;;;;;11.17;6.00;;;1.10;99.90;;;;;;5013276;28;20393;-91
2022/04/03 07:09:07;;;;;;;10.97;4.27;;;2.30;99.90;;;;;;5007573;28;20050;-89
2022/04/03 07:11:45;;;;;;;9.53;4.40;;;1.20;99.90;;;;;;5012444;28;20153;-89
2022/04/03 07:14:10;;;;;;;11.60;4.87;;;1.20;99.90;;;;;;4998305;28;20041;-90
2022/04/03 07:16:57;;;;;;;11.17;4.77;;;1.10;99.90;;;;;;4979362;28;20133;-90
2022/04/03 07:19:37;;;;;;;10.23;3.80;;;1.40;99.90;;;;;;4996075;28;20529;-92
2022/04/03 07:22:09;;;;;;;11.07;5.70;;;1.10;99.90;;;;;;4996688;28;20030;-93
2022/04/03 07:24:35;;;;;;;9.77;4.07;;;2.60;99.90;;;;;;5010001;28;20058;-94
2022/04/03 07:27:04;;;;;;;9.50;3.70;;;2.80;99.90;;;;;;4992280;28;20056;-89
2022/04/03 07:29:29;;;;;;;12.10;5.70;;;1.50;99.90;;;;;;4994484;28;20048;-88
2022/04/03 07:32:02;;;;;;;10.23;4.70;;;1.60;99.90;;;;;;4995378;28;20053;-89
2022/04/03 07:34:28;;;;;;;11.23;5.40;;;2.00;99.90;;;;;;4995398;28;20064;-89
2022/04/03 07:36:56;;;;;;;10.17;3.53;;;2.00;99.90;;;;;;4994421;28;20498;-90
2022/04/03 07:42:07;;;;;;;10.47;3.83;;;1.30;99.90;;;;;;4996118;28;20050;-89
2022/04/03 07:44:33;;;;;;;8.97;3.07;;;2.10;99.90;;;;;;5016605;28;20042;-90
2022/04/03 07:47:17;;;;;;;12.50;6.23;;;2.80;99.90;;;;;;5016472;28;20038;-90
2022/04/03 07:49:42;;;;;;;8.10;3.28;;;1.90;99.90;;;;;;5018774;28;20046;-91
2022/04/03 07:52:24;;;;;;;10.27;5.40;;;2.00;99.90;;;;;;5019973;28;20050;-89
2022/04/03 07:57:23;;;;;;;9.20;3.40;;;2.40;99.90;;;;;;5091535;23;20061;-96
2022/04/03 07:59:49;;;;;;;8.70;3.70;;;2.60;99.90;;;;;;5040057;28;20088;-91
2022/04/03 08:02:14;;;;;;;11.43;4.73;;;2.80;99.90;;;;;;5034740;28;20056;-89
2022/04/03 08:04:40;;;;;;;9.63;3.70;;;3.00;99.90;;;;;;5034141;28;20052;-88
2022/04/03 08:07:05;;;;;;;8.03;3.00;;;3.10;99.90;;;;;;5034161;28;20048;-88
2022/04/03 08:09:31;;;;;;;9.00;3.90;;;3.20;99.90;;;;;;5035012;28;20033;-89
2022/04/03 08:11:56;;;;;;;9.87;3.50;;;3.30;99.90;;;;;;5034493;28;20099;-89
2022/04/03 08:14:26;;;;;;;8.17;3.30;;;3.50;99.90;;;;;;5034750;28;20049;-89
2022/04/03 08:16:57;;;;;;;10.87;3.60;;;3.70;99.90;;;;;;5033895;28;20041;-88
2022/04/03 08:19:38;;;;;;;8.63;2.93;;;4.00;99.90;;;;;;5034566;28;20045;-87
2022/04/03 08:22:19;;;;;;;8.90;2.60;;;3.90;99.90;;;;;;5033976;28;20128;-88
2022/04/03 08:25:03;;;;;;;9.30;2.93;;;3.90;99.90;;;;;;5034021;28;20481;-88
2022/04/03 08:27:55;;;;;;;6.77;2.40;;;5.50;99.90;;;;;;5030367;28;20043;-88
2022/04/03 08:30:27;;;;;;;11.83;6.17;;;3.70;99.90;;;;;;5032775;28;20048;-87
2022/04/03 08:32:54;;;;;;;12.40;7.03;;;3.60;99.90;;;;;;5031450;28;20045;-87
2022/04/03 08:35:23;;;;;;;7.33;2.63;;;4.10;99.90;;;;;;5036816;28;20087;-88
2022/04/03 08:37:53;;;;;;;19.03;10.03;;;4.20;99.90;;;;;;5039108;28;20052;-88
2022/04/03 08:40:20;;;;;;;17.57;8.30;;;4.20;99.90;;;;;;5033989;28;20481;-88
2022/04/03 08:42:46;;;;;;;8.87;3.80;;;4.40;99.90;;;;;;5034859;28;20099;-87
2022/04/03 08:45:12;;;;;;;11.90;2.73;;;5.90;99.90;;;;;;5034322;28;20041;-87
2022/04/03 08:47:50;;;;;;;7.77;2.73;;;4.60;99.90;;;;;;5033148;28;20029;-88
2022/04/03 08:50:17;;;;;;;8.40;3.10;;;4.80;99.90;;;;;;5031616;28;20378;-86
2022/04/03 08:52:46;;;;;;;6.13;2.10;;;4.90;99.90;;;;;;5033259;28;20084;-87
2022/04/03 08:55:12;;;;;;;6.90;2.20;;;5.00;99.90;;;;;;5032781;28;20378;-88
2022/04/03 08:57:38;;;;;;;7.40;2.40;;;5.10;99.90;;;;;;5034202;28;20037;-86
2022/04/03 09:00:05;;;;;;;8.70;3.10;;;5.20;99.90;;;;;;5033747;28;20103;-87
2022/04/03 09:02:34;;;;;;;7.80;2.17;;;5.30;99.90;;;;;;5033572;28;20069;-86
2022/04/03 09:05:09;;;;;;;7.90;2.17;;;6.40;99.90;;;;;;5032975;28;20618;-87
2022/04/03 09:08:16;;;;;;;7.03;2.30;;;5.60;99.90;;;;;;5032489;28;20086;-86
2022/04/03 09:11:05;;;;;;;6.07;1.90;;;6.10;99.90;;;;;;5033309;28;20079;-88
2022/04/03 09:13:36;;;;;;;8.57;2.07;;;6.00;99.90;;;;;;5030631;28;20042;-88
2022/04/03 09:16:22;;;;;;;7.00;2.00;;;5.90;99.90;;;;;;5032998;23;20046;-88
2022/04/03 09:18:51;;;;;;;7.60;2.17;;;6.00;99.90;;;;;;5014825;28;20552;-87
2022/04/03 09:21:19;;;;;;;8.10;3.13;;;7.40;99.90;;;;;;5012816;28;20038;-87
2022/04/03 09:24:00;;;;;;;7.00;1.67;;;6.70;99.90;;;;;;5012615;28;20042;-87
2022/04/03 09:27:02;;;;;;;7.50;1.80;;;7.50;99.90;;;;;;5012149;28;20117;-87
2022/04/03 09:29:44;;;;;;;8.60;2.20;;;6.20;99.90;;;;;;5011057;28;20046;-86
2022/04/03 09:32:11;;;;;;;9.77;2.53;;;6.20;99.90;;;;;;5012141;28;20053;-87
2022/04/03 09:34:38;;;;;;;10.80;4.33;;;6.50;99.90;;;;;;5020132;23;20099;-87
2022/04/03 09:37:07;;;;;;;9.23;2.10;;;6.70;99.90;;;;;;4995771;28;20100;-87
2022/04/03 09:39:33;;;;;;;8.77;3.20;;;6.70;99.90;;;;;;4996362;28;20120;-87
2022/04/03 09:42:06;;;;;;;7.27;2.13;;;6.50;99.90;;;;;;5014090;28;20514;-88
2022/04/03 09:44:40;;;;;;;8.35;2.30;;;6.40;99.90;;;;;;4993643;28;20045;-87
2022/04/03 09:47:09;;;;;;;;;;;6.30;99.90;;;;;;4996899;28;20042;-87
2022/04/03 09:49:35;;;;;;;6.97;2.67;;;6.00;99.90;;;;;;4996110;28;19921;-89
2022/04/03 09:52:00;;;;;;;8.33;2.33;;;5.90;99.90;;;;;;4995657;28;20038;-87
2022/04/03 09:54:26;;;;;;;4.43;1.60;;;5.80;99.90;;;;;;4996135;28;20128;-87
2022/04/03 09:56:52;;;;;;;4.63;1.60;;;5.90;99.90;;;;;;4996221;28;20069;-86
2022/04/03 09:59:17;;;;;;;6.77;2.60;;;6.10;99.90;;;;;;4995642;28;20050;-86
2022/04/03 10:01:43;;;;;;;6.03;1.90;;;6.40;99.90;;;;;;4996087;28;20042;-87
2022/04/03 10:04:15;;;;;;;5.73;1.80;;;6.80;99.90;;;;;;5011637;28;20116;-86
2022/04/03 10:06:42;;;;;;;5.83;1.90;;;8.10;99.90;;;;;;4996150;28;20184;-87
2022/04/03 10:09:11;;;;;;;7.00;2.00;;;7.20;99.90;;;;;;5068151;23;20383;-87
2022/04/03 10:11:40;;;;;;;9.03;2.90;;;8.20;99.90;;;;;;4999838;28;20100;-88
2022/04/03 10:14:06;;;;;;;7.93;1.90;;;7.20;99.90;;;;;;4997669;28;20046;-87
2022/04/03 10:16:32;;;;;;;18.30;8.10;;;7.90;99.90;;;;;;4995021;28;20045;-87
2022/04/03 10:19:13;;;;;;;37.53;17.27;;;7.00;99.90;;;;;;4994771;28;20054;-87
2022/04/03 10:22:05;;;;;;;27.43;12.50;;;6.70;99.90;;;;;;4994491;28;20042;-87
2022/04/03 10:24:53;;;;;;;9.40;3.23;;;8.80;99.90;;;;;;5013360;28;20042;-87
2022/04/03 10:27:23;;;;;;;9.20;3.30;;;7.30;99.90;;;;;;4993233;28;20038;-86
2022/04/03 10:29:55;;;;;;;6.43;2.30;;;7.80;99.90;;;;;;5013350;28;20414;-87
2022/04/03 10:33:07;;;;;;;7.07;2.27;;;8.90;99.90;;;;;;5016971;23;20509;-87
2022/04/03 10:35:50;;;;;;;5.50;1.63;;;8.30;99.90;;;;;;5045894;28;20080;-86
2022/04/03 10:39:00;;;;;;;9.38;3.78;;;8.00;99.90;;;;;;5029542;28;20063;-86
2022/04/03 10:41:43;;;;;;;10.40;4.10;;;8.00;99.90;;;;;;5030453;28;20045;-88
2022/04/03 10:45:11;;;;;;;9.93;2.65;;;7.80;99.90;;;;;;5027584;28;20037;-86
2022/04/03 10:47:48;;;;;;;9.82;4.63;;;7.20;99.90;;;;;;5019523;28;20110;-87
2022/04/03 10:50:14;;;;;;;8.83;3.10;;;7.50;99.90;;;;;;5007904;28;20084;-87
2022/04/03 10:52:40;;;;;;;4.13;1.50;;;7.40;99.90;;;;;;5012521;23;20129;-88
2022/04/03 10:55:33;;;;;;;3.67;1.23;;;7.60;99.90;;;;;;5012962;28;20129;-88
2022/04/03 10:58:03;;;;;;;5.78;1.45;;;7.80;99.90;;;;;;5011158;28;20077;-87
2022/04/03 11:00:34;;;;;;;6.43;2.08;;;8.10;99.90;;;;;;5009402;28;20049;-87
2022/04/03 11:03:14;;;;;;;9.30;3.50;;;8.30;99.90;;;;;;5011994;28;20084;-89
2022/04/03 11:05:46;;;;;;;12.55;6.15;;;8.40;99.90;;;;;;5011492;28;20037;-88
2022/04/03 11:08:11;;;;;;;11.30;4.57;;;9.00;99.90;;;;;;5009986;28;20076;-95
2022/04/03 11:11:30;;;;;;;10.43;3.47;;;7.70;99.90;;;;;;5062074;22;20070;-89
2022/04/03 11:13:40;;;;;;;10.85;6.43;;;7.40;99.90;;;;;;4980546;28;20054;-86
2022/04/03 11:16:16;;;;;;;8.73;2.93;;;7.30;99.90;;;;;;4987839;28;20398;-91
2022/04/03 11:18:47;;;;;;;14.87;5.97;;;7.20;99.90;;;;;;5009657;28;20084;-86
2022/04/03 11:21:16;;;;;;;8.90;3.30;;;7.10;99.90;;;;;;4982736;28;20042;-86
2022/04/03 11:24:12;;;;;;;14.37;7.27;;;7.10;99.90;;;;;;5000002;28;20045;-86
2022/04/03 11:26:40;;;;;;;6.40;1.63;;;7.20;99.90;;;;;;4974759;28;20038;-86
2022/04/03 11:29:13;;;;;;;13.00;6.50;;;6.90;99.90;;;;;;4998237;28;20049;-86
2022/04/03 11:31:38;;;;;;;7.82;2.50;;;7.50;99.90;;;;;;5002367;28;20038;-86
2022/04/03 11:34:16;;;;;;;5.88;1.80;;;7.60;99.90;;;;;;4985857;28;20049;-86
2022/04/03 11:36:42;;;;;;;8.47;2.10;;;7.00;99.90;;;;;;4985163;28;20047;-86
2022/04/03 11:39:17;;;;;;;6.85;1.85;;;7.50;99.90;;;;;;5003650;28;20042;-86
2022/04/03 11:41:51;;;;;;;5.00;1.52;;;8.20;99.90;;;;;;4986112;28;20069;-85
2022/04/03 11:44:16;;;;;;;4.75;1.60;;;7.10;99.90;;;;;;5000189;28;20046;-85
2022/04/03 11:46:48;;;;;;;4.88;1.55;;;7.20;99.90;;;;;;4984031;28;20497;-85
2022/04/03 11:49:36;;;;;;;5.00;1.70;;;6.70;99.90;;;;;;5000343;28;20050;-86
2022/04/03 11:52:23;;;;;;;4.78;1.50;;;6.70;99.90;;;;;;4985400;28;20065;-86
2022/04/03 11:55:12;;;;;;;6.30;1.90;;;7.40;99.90;;;;;;4981564;28;20367;-86
2022/04/03 11:57:38;;;;;;;6.55;1.60;;;6.60;99.90;;;;;;4987313;22;20446;-87
2022/04/03 12:00:07;;;;;;;3.70;1.33;;;7.60;99.90;;;;;;4986328;28;20054;-86
2022/04/03 12:02:32;;;;;;;5.80;1.50;;;8.10;99.90;;;;;;4984312;28;20509;-86
2022/04/03 12:04:58;;;;;;;5.10;1.40;;;8.60;99.90;;;;;;4984239;28;20128;-86
2022/04/03 12:07:23;;;;;;;5.25;1.40;;;9.00;99.90;;;;;;4985691;28;20042;-86
2022/04/03 12:10:08;;;;;;;5.40;1.50;;;9.90;99.90;;;;;;5001431;28;20113;-86
2022/04/03 12:12:34;;;;;;;4.35;1.50;;;10.00;99.90;;;;;;4999272;28;20039;-86
2022/04/03 12:15:11;;;;;;;4.38;1.33;;;10.50;99.90;;;;;;5001927;28;20070;-86
2022/04/03 12:17:41;;;;;;;4.40;1.42;;;10.50;99.90;;;;;;4983659;28;20042;-86
2022/04/03 12:20:10;;;;;;;5.72;1.70;;;10.30;99.90;;;;;;4985861;28;20042;-86
2022/04/03 12:22:41;;;;;;;3.33;1.30;;;9.70;99.90;;;;;;5002714;28;20042;-85
2022/04/03 12:25:07;;;;;;;5.93;1.60;;;9.40;99.90;;;;;;4982989;28;20056;-86
2022/04/03 12:27:35;;;;;;;5.72;1.60;;;9.00;99.90;;;;;;4986474;28;20401;-86
2022/04/03 12:30:01;;;;;;;7.70;1.92;;;8.60;99.90;;;;;;5006428;28;20125;-86
2022/04/03 12:32:35;;;;;;;6.05;1.50;;;8.40;99.90;;;;;;4985727;28;20181;-86
2022/04/03 12:35:01;;;;;;;;;;;8.10;99.90;;;;;;4988456;28;20041;-86
2022/04/03 12:37:31;;;;;;;4.35;1.50;;;7.80;99.90;;;;;;4988726;28;20411;-87
2022/04/03 12:40:15;;;;;;;3.20;1.45;;;7.60;99.90;;;;;;4987488;28;20051;-87
2022/04/03 12:42:43;;;;;;;3.92;1.40;;;7.40;99.90;;;;;;4985348;28;20505;-86
2022/04/03 12:45:17;;;;;;;9.48;1.70;;;7.00;99.90;;;;;;5005610;28;20054;-86
2022/04/03 12:47:57;;;;;;;5.82;1.70;;;7.00;99.90;;;;;;5003898;28;20390;-85
2022/04/03 12:50:42;;;;;;;5.43;1.63;;;7.00;99.90;;;;;;4979335;28;20394;-87
2022/04/03 12:53:16;;;;;;;5.18;1.55;;;7.40;99.90;;;;;;4977112;28;20045;-87
2022/04/03 12:55:49;;;;;;;4.80;1.73;;;7.00;99.90;;;;;;4978104;28;20042;-86
2022/04/03 12:58:26;;;;;;;4.63;1.80;;;7.90;99.90;;;;;;4980109;28;20536;-86
2022/04/03 13:01:11;;;;;;;5.47;1.60;;;7.20;99.90;;;;;;5001734;28;20049;-86
2022/04/03 13:03:40;;;;;;;4.83;1.63;;;7.30;99.90;;;;;;5003477;28;20108;-86
2022/04/03 13:06:28;;;;;;;4.68;1.60;;;7.40;99.90;;;;;;4986779;28;20052;-92
2022/04/03 13:09:06;;;;;;;4.60;1.80;;;7.80;99.90;;;;;;4984480;28;20034;-86